Portada
METAR-TAF:

METAR-TAF

Aeropuertos :

Aeropuerto MidAmerica

Belleville, Illinois, Estados Unidos

latitud: 38-33N, longitud: 089-51W, altitud: 140 m

Observación

El informe se hizo hace 29 minutos, a las 21:56 UTC
Viento 12 kt del norte-noroeste
Temperatura 28°C
Humedad 74%
Presión 1017 hPa
Visibilidad: 16.1 km
Escasas nubes a una altura de 3700 ft
Escasas nubes a una altura de 9000 ft

METAR: KBLV 012156Z AUTO 34012KT 10SM FEW037 FEW090 28/23 A3002 RMK AO2 SLP166 T02820233 $

Hora: 17:25 (22:25 UTC)

Pronóstico

El informe se hizo hace 6 horas y 25 minutos, a las 16:00 UTC
Pronóstico válido del 01 a las 16 UTC al 02 a las 22 UTC
Viento 6 kt del noroeste
Visibilidad 10 km o más
Cielo cubierto a una altura de 3000 ft

TAF: KBLV 011600Z 0116/0222 31006KT 9999 OVC030 QNH3003INS TX29/0121Z TN18/0211Z

Observaciones y pronósticos meteorológicos de más de 4000 aeropuertos (mensajes METAR y TAF).

Los puntos amarillos y rojos representan las estaciones disponibles.

Ponga el ratón en el punto deseado para ver el nombre de la estación.

Haga clic para ver las observaciones y los pronósticos meteorológicos.

Para cambiar el mapa : haga clic en los botones verdes con una cruz de color negro para hacer un zoom, en el botón verde con un guión para alejar o en las flechas verdes para mapas adyacentes.


METAR-TAF: